Terminal Aerodrome Forecast
Issued by NWS

Home | Current Version | Previous Version | Text Only | Print | Product List | Glossary On
Versions: 1 2 3 4 5 6 7 8 9 10 11 12 13 14 15 16 17 18 19 20 21 22
000
FTUS41 KCLE 211900 AAA
TAFFDY
TAF AMD
KFDY 211926Z 2119/2218 29015G28KT P6SM VCSH SCT025 OVC035
     FM220400 33008KT P6SM SCT025 BKN035
     FM221400 35010KT P6SM SCT035=

USA.gov is the U.S. government's official web portal to all federal, state and local government web resources and services.